Time;durP1;ratioP1;P1;durP2;ratioP2;P2;SDS_P1;SDS_P2;PMS_P1;PMS_P2;Temp;Humidity;BMP_temperature;BMP_pressure;BME280_temperature;BME280_humidity;BME280_pressure;Samples;Min_cycle;Max_cycle;Signal;HPM_P1;HPM_P2
2021/05/15 00:00:38;;;;;;;1.50;1.10;;;12.00;98.20;;;;;;5009991;28;20475;-79
2021/05/15 00:03:05;;;;;;;1.50;1.10;;;12.00;98.20;;;;;;5012758;28;20479;-78
2021/05/15 00:05:35;;;;;;;1.50;1.10;;;11.90;98.20;;;;;;5010331;28;20459;-78
2021/05/15 00:08:03;;;;;;;1.50;1.00;;;11.90;98.20;;;;;;5016257;28;20947;-79
2021/05/15 00:10:30;;;;;;;1.50;1.00;;;11.90;98.20;;;;;;5011096;28;20514;-78
2021/05/15 00:12:57;;;;;;;1.50;1.00;;;11.80;98.20;;;;;;5012698;28;20490;-77
2021/05/15 00:15:27;;;;;;;1.50;1.10;;;11.80;98.20;;;;;;5008637;28;20468;-77
2021/05/15 00:17:57;;;;;;;1.50;1.00;;;11.80;98.20;;;;;;5013171;28;20483;-78
2021/05/15 00:20:25;;;;;;;1.50;1.10;;;11.80;98.20;;;;;;5007660;28;20470;-78
2021/05/15 00:22:52;;;;;;;1.50;1.10;;;11.80;98.20;;;;;;5011684;28;20563;-77
2021/05/15 00:25:22;;;;;;;1.50;1.10;;;11.80;98.20;;;;;;5008941;28;20471;-78
2021/05/15 00:27:48;;;;;;;1.50;1.20;;;11.70;98.20;;;;;;5014797;28;20532;-78
2021/05/15 00:30:16;;;;;;;1.50;1.10;;;11.80;98.20;;;;;;5009789;28;20483;-77
2021/05/15 00:32:46;;;;;;;1.50;1.10;;;11.70;98.20;;;;;;5013215;28;20495;-78
2021/05/15 00:35:13;;;;;;;1.50;1.10;;;11.70;98.20;;;;;;5010715;28;20526;-78
2021/05/15 00:37:40;;;;;;;1.50;1.10;;;11.60;98.20;;;;;;5017255;28;20475;-78
2021/05/15 00:40:13;;;;;;;1.50;1.00;;;11.60;98.20;;;;;;5014144;28;20475;-78
2021/05/15 00:42:40;;;;;;;1.50;1.10;;;11.60;98.20;;;;;;5015733;28;20487;-77
2021/05/15 00:45:08;;;;;;;1.50;1.17;;;11.60;98.20;;;;;;5013894;28;20456;-78
2021/05/15 00:47:37;;;;;;;1.53;1.10;;;11.60;98.20;;;;;;5016113;28;20513;-78
2021/05/15 00:50:07;;;;;;;1.50;1.00;;;11.60;98.20;;;;;;5013451;28;20655;-76
2021/05/15 00:52:35;;;;;;;1.50;1.00;;;11.60;98.20;;;;;;5014983;28;20487;-76
2021/05/15 00:55:05;;;;;;;1.50;1.10;;;11.70;98.20;;;;;;5009543;28;20487;-77
2021/05/15 00:57:32;;;;;;;1.50;1.10;;;11.70;98.20;;;;;;5007646;28;20480;-77
2021/05/15 00:59:58;;;;;;;1.50;1.10;;;11.70;98.20;;;;;;5009866;28;20498;-77
2021/05/15 01:02:24;;;;;;;1.50;1.00;;;11.60;98.20;;;;;;5012779;28;20508;-77
2021/05/15 01:04:55;;;;;;;1.50;1.10;;;11.60;98.20;;;;;;5013742;28;20471;-77
2021/05/15 01:07:24;;;;;;;1.50;1.10;;;11.60;98.20;;;;;;5012472;28;21003;-77
2021/05/15 01:09:51;;;;;;;1.50;1.00;;;11.60;98.20;;;;;;5011947;28;20464;-77
2021/05/15 01:12:19;;;;;;;1.50;1.10;;;11.60;98.20;;;;;;5011127;28;20475;-76
2021/05/15 01:14:46;;;;;;;1.50;1.00;;;11.50;98.20;;;;;;5013444;28;20464;-77
2021/05/15 01:17:12;;;;;;;1.50;1.20;;;11.50;98.20;;;;;;5010225;28;20479;-78
2021/05/15 01:19:39;;;;;;;1.50;1.10;;;11.50;98.20;;;;;;5017831;28;20550;-78
2021/05/15 01:22:09;;;;;;;1.50;1.10;;;11.50;98.20;;;;;;5008971;28;20541;-78
2021/05/15 01:24:39;;;;;;;1.50;1.10;;;11.50;98.20;;;;;;5010697;28;20525;-78
2021/05/15 01:27:09;;;;;;;1.50;1.10;;;11.50;98.20;;;;;;5007936;28;20479;-78
2021/05/15 01:29:36;;;;;;;1.50;1.10;;;11.50;98.20;;;;;;5015267;28;20488;-78
2021/05/15 01:32:03;;;;;;;1.50;1.10;;;11.50;98.20;;;;;;5011291;28;20491;-78
2021/05/15 01:34:30;;;;;;;1.50;1.10;;;11.50;98.20;;;;;;5008534;28;20482;-78
2021/05/15 01:36:56;;;;;;;1.50;1.10;;;11.50;98.20;;;;;;5009672;28;20569;-78
2021/05/15 01:39:24;;;;;;;1.50;1.00;;;11.50;98.20;;;;;;5018210;28;20475;-77
2021/05/15 01:41:50;;;;;;;1.50;1.10;;;11.50;98.20;;;;;;5005211;28;20484;-77
2021/05/15 01:44:17;;;;;;;1.50;1.10;;;11.50;98.20;;;;;;4998925;28;20478;-77
2021/05/15 01:46:43;;;;;;;1.50;1.10;;;11.50;98.20;;;;;;5002346;28;21026;-77
2021/05/15 01:49:12;;;;;;;1.50;1.10;;;11.50;98.20;;;;;;5013623;28;20481;-79
2021/05/15 01:51:43;;;;;;;1.50;1.10;;;11.50;98.20;;;;;;5007456;28;20508;-78
2021/05/15 01:54:12;;;;;;;1.50;1.10;;;11.40;98.20;;;;;;5017808;28;20478;-77
2021/05/15 01:56:39;;;;;;;1.50;1.00;;;11.40;98.20;;;;;;5007464;28;20471;-78
2021/05/15 01:59:08;;;;;;;1.50;1.20;;;11.50;98.20;;;;;;5018451;28;20455;-78
2021/05/15 02:01:35;;;;;;;1.50;1.10;;;11.40;98.20;;;;;;5004748;28;20494;-78
2021/05/15 02:04:01;;;;;;;1.50;1.00;;;11.40;98.20;;;;;;5017300;28;20472;-78
2021/05/15 02:06:27;;;;;;;1.50;1.20;;;11.40;98.20;;;;;;5006608;28;20478;-78
2021/05/15 02:08:56;;;;;;;1.50;1.17;;;11.40;98.20;;;;;;5021556;28;20540;-78
2021/05/15 02:11:22;;;;;;;1.50;1.20;;;11.40;98.20;;;;;;5002211;28;20482;-78
2021/05/15 02:13:57;;;;;;;1.50;1.13;;;11.40;98.20;;;;;;5020790;28;20456;-77
2021/05/15 02:16:24;;;;;;;1.50;1.20;;;11.40;98.20;;;;;;5002925;28;20524;-77
2021/05/15 02:18:50;;;;;;;1.50;1.10;;;11.30;98.20;;;;;;5019052;28;20464;-78
2021/05/15 02:21:17;;;;;;;1.50;1.10;;;11.30;98.20;;;;;;5001227;28;20489;-78
2021/05/15 02:23:46;;;;;;;1.50;1.10;;;11.30;98.20;;;;;;5019339;28;20685;-77
2021/05/15 02:26:12;;;;;;;1.50;1.10;;;11.30;98.20;;;;;;5001276;28;20483;-77
2021/05/15 02:28:42;;;;;;;1.50;1.10;;;11.30;98.20;;;;;;5022370;28;20488;-77
2021/05/15 02:31:12;;;;;;;1.50;1.10;;;11.30;98.20;;;;;;5001305;28;20517;-78
2021/05/15 02:33:41;;;;;;;1.50;1.10;;;11.30;98.20;;;;;;5021300;28;20648;-77
2021/05/15 02:36:09;;;;;;;1.50;1.00;;;11.40;98.20;;;;;;5000999;28;20494;-76
2021/05/15 02:38:36;;;;;;;1.50;1.00;;;11.40;98.20;;;;;;5018365;28;20931;-77
2021/05/15 02:41:10;;;;;;;1.50;1.10;;;11.40;98.20;;;;;;4999598;28;21042;-77
2021/05/15 02:43:36;;;;;;;1.50;1.10;;;11.40;98.20;;;;;;5020089;28;20456;-78
2021/05/15 02:46:06;;;;;;;1.50;1.20;;;11.40;98.20;;;;;;5003689;28;20987;-79
2021/05/15 02:48:33;;;;;;;1.50;1.10;;;11.40;98.20;;;;;;5021339;28;20538;-77
2021/05/15 02:50:59;;;;;;;1.50;1.00;;;11.30;98.20;;;;;;5001155;28;20467;-77
2021/05/15 02:53:28;;;;;;;1.50;1.10;;;11.30;98.20;;;;;;5021281;28;20456;-78
2021/05/15 02:55:54;;;;;;;1.50;1.10;;;11.30;98.20;;;;;;4999682;28;20456;-78
2021/05/15 02:58:29;;;;;;;1.50;1.00;;;11.30;98.20;;;;;;5024161;28;20453;-78
2021/05/15 03:01:00;;;;;;;1.50;1.10;;;11.30;98.20;;;;;;4998490;28;20555;-77
2021/05/15 03:03:27;;;;;;;1.50;1.00;;;11.30;98.20;;;;;;5024397;28;20478;-77
2021/05/15 03:05:59;;;;;;;1.50;1.10;;;11.30;98.20;;;;;;5003497;28;21080;-77
2021/05/15 03:08:44;;;;;;;1.50;1.10;;;11.30;98.20;;;;;;5025208;28;20995;-78
2021/05/15 03:11:10;;;;;;;1.50;1.10;;;11.30;98.20;;;;;;5000821;28;20497;-77
2021/05/15 03:13:41;;;;;;;1.50;1.10;;;11.30;98.20;;;;;;5021015;28;20551;-78
2021/05/15 03:16:07;;;;;;;1.50;1.10;;;11.30;98.20;;;;;;5007951;28;20515;-78
2021/05/15 03:18:45;;;;;;;1.50;1.10;;;11.30;98.20;;;;;;5022232;28;20476;-78
2021/05/15 03:21:17;;;;;;;1.50;1.10;;;11.30;98.20;;;;;;5001685;28;21120;-78
2021/05/15 03:23:43;;;;;;;1.50;1.07;;;11.30;98.20;;;;;;5019435;28;20464;-78
2021/05/15 03:26:10;;;;;;;1.53;1.20;;;11.30;98.20;;;;;;5001578;28;20553;-78
2021/05/15 03:28:41;;;;;;;1.50;1.10;;;11.30;98.20;;;;;;5021464;28;20480;-78
2021/05/15 03:31:22;;;;;;;2.20;2.00;;;11.30;98.20;;;;;;4999406;28;20598;-77
2021/05/15 03:33:51;;;;;;;1.50;1.10;;;11.40;98.20;;;;;;5017281;28;20538;-77
2021/05/15 03:36:20;;;;;;;1.50;1.10;;;11.40;98.20;;;;;;5001596;28;20478;-77
2021/05/15 03:38:52;;;;;;;1.50;1.00;;;11.40;98.20;;;;;;5019040;28;20518;-77
2021/05/15 03:41:18;;;;;;;1.50;1.17;;;11.40;98.20;;;;;;5003488;28;20497;-78
2021/05/15 03:43:45;;;;;;;1.50;1.00;;;11.40;98.20;;;;;;5013836;28;20872;-78
2021/05/15 03:46:12;;;;;;;1.50;1.00;;;11.40;98.20;;;;;;5000089;28;20785;-78
2021/05/15 03:48:38;;;;;;;1.50;1.20;;;11.40;98.20;;;;;;5022808;28;20517;-78
2021/05/15 03:51:08;;;;;;;1.50;1.10;;;11.40;98.20;;;;;;5001600;28;20499;-79
2021/05/15 03:53:38;;;;;;;1.50;1.10;;;11.30;98.20;;;;;;5018708;28;20523;-79
2021/05/15 03:56:15;;;;;;;1.50;1.00;;;11.30;98.20;;;;;;5002239;28;20587;-79
2021/05/15 03:58:45;;;;;;;1.50;1.00;;;11.40;98.20;;;;;;5023607;28;20470;-79
2021/05/15 04:03:56;;;;;;;1.50;1.10;;;11.30;98.20;;;;;;5009566;28;20511;-78
2021/05/15 04:06:23;;;;;;;1.50;1.10;;;11.40;98.20;;;;;;5005221;28;20508;-78
2021/05/15 04:09:00;;;;;;;1.50;1.10;;;11.30;98.20;;;;;;5022216;28;20488;-78
2021/05/15 04:11:35;;;;;;;1.50;1.10;;;11.30;98.20;;;;;;5008533;28;20489;-79
2021/05/15 04:14:08;;;;;;;1.50;1.10;;;11.30;98.20;;;;;;5020524;28;20541;-78
2021/05/15 04:16:47;;;;;;;1.50;1.07;;;11.40;98.20;;;;;;5006593;28;20479;-78
2021/05/15 04:19:16;;;;;;;1.50;1.10;;;11.40;98.20;;;;;;5020592;28;20471;-78
2021/05/15 04:21:46;;;;;;;1.50;1.10;;;11.40;98.20;;;;;;5011142;28;20481;-79
2021/05/15 04:24:13;;;;;;;1.50;1.10;;;11.40;98.20;;;;;;5020436;28;20463;-78
2021/05/15 04:26:52;;;;;;;1.50;1.00;;;11.40;98.20;;;;;;5011571;28;20888;-78
2021/05/15 04:29:21;;;;;;;1.50;1.10;;;11.40;98.20;;;;;;5018203;28;20480;-78
2021/05/15 04:31:53;;;;;;;1.50;1.10;;;11.50;98.20;;;;;;5008958;28;20487;-78
2021/05/15 04:34:28;;;;;;;1.50;1.00;;;11.50;98.20;;;;;;5017209;28;20906;-79
2021/05/15 04:36:56;;;;;;;1.50;1.10;;;11.50;98.20;;;;;;5013687;28;20483;-78
2021/05/15 04:39:25;;;;;;;1.50;1.00;;;11.50;98.20;;;;;;5018944;28;20463;-78
2021/05/15 04:41:55;;;;;;;1.50;1.00;;;11.50;98.20;;;;;;5010622;28;21145;-79
2021/05/15 04:44:25;;;;;;;1.50;1.10;;;11.50;98.20;;;;;;5015008;28;20464;-79
2021/05/15 04:46:56;;;;;;;1.50;1.00;;;11.50;98.20;;;;;;5009721;28;20499;-78
2021/05/15 04:49:23;;;;;;;1.50;1.00;;;11.50;98.20;;;;;;5019312;28;21009;-79
2021/05/15 04:51:51;;;;;;;1.50;1.00;;;11.50;98.20;;;;;;5006460;28;20497;-78
2021/05/15 04:54:32;;;;;;;1.50;1.00;;;11.50;98.20;;;;;;5019712;28;20513;-78
2021/05/15 04:57:02;;;;;;;1.50;1.10;;;11.50;98.20;;;;;;5012758;28;20483;-78
2021/05/15 04:59:34;;;;;;;1.50;1.00;;;11.60;98.20;;;;;;5015611;28;20472;-78
2021/05/15 05:02:00;;;;;;;1.50;1.10;;;11.60;98.20;;;;;;5008947;28;20479;-78
2021/05/15 05:04:29;;;;;;;1.50;0.90;;;11.60;98.20;;;;;;5019158;28;20812;-78
2021/05/15 05:06:56;;;;;;;1.50;1.00;;;11.60;98.20;;;;;;5011178;28;20483;-78
2021/05/15 05:09:46;;;;;;;1.50;1.10;;;11.60;98.20;;;;;;5020392;28;20575;-78
2021/05/15 05:12:19;;;;;;;1.50;1.00;;;11.60;98.20;;;;;;5001986;28;20485;-77
2021/05/15 05:15:03;;;;;;;1.50;1.00;;;11.60;98.20;;;;;;5015636;28;20460;-78
2021/05/15 05:17:32;;;;;;;1.50;1.10;;;11.70;98.20;;;;;;5013265;28;21114;-78
2021/05/15 05:20:01;;;;;;;1.50;1.00;;;11.70;98.20;;;;;;5014425;28;20905;-78
2021/05/15 05:22:28;;;;;;;1.50;1.00;;;11.70;98.20;;;;;;5014898;28;20876;-77
2021/05/15 05:25:03;;;;;;;1.50;1.10;;;11.70;98.20;;;;;;5012973;28;20555;-78
2021/05/15 05:27:33;;;;;;;1.50;1.10;;;11.70;98.20;;;;;;5012648;28;20485;-78
2021/05/15 05:29:59;;;;;;;1.50;1.03;;;11.80;98.20;;;;;;5013164;28;20467;-79
2021/05/15 05:32:28;;;;;;;1.50;1.00;;;11.80;98.20;;;;;;5011674;28;20486;-78
2021/05/15 05:35:01;;;;;;;1.50;1.00;;;11.80;98.20;;;;;;5016152;28;20459;-79
2021/05/15 05:37:30;;;;;;;1.50;1.00;;;11.90;98.20;;;;;;5016973;28;20471;-78
2021/05/15 05:40:12;;;;;;;1.50;1.00;;;11.90;98.20;;;;;;5017223;28;20978;-78
2021/05/15 05:42:41;;;;;;;1.50;1.00;;;11.90;98.20;;;;;;5015067;28;20498;-81
2021/05/15 05:45:12;;;;;;;1.50;1.10;;;11.90;98.20;;;;;;5014757;28;20487;-79
2021/05/15 05:47:38;;;;;;;1.50;1.00;;;11.90;98.20;;;;;;5014347;28;20490;-78
2021/05/15 05:50:14;;;;;;;1.50;1.00;;;11.90;98.20;;;;;;5011619;28;20469;-77
2021/05/15 05:52:45;;;;;;;1.50;1.10;;;11.90;98.20;;;;;;5017078;28;20545;-77
2021/05/15 05:55:14;;;;;;;1.50;1.10;;;11.80;98.20;;;;;;5014398;28;20464;-79
2021/05/15 05:58:46;;;;;;;1.50;1.10;;;11.80;98.20;;;;;;5013056;28;20574;-81
2021/05/15 06:13:18;;;;;;;;;;;;;;;;;;;;;
2021/05/15 06:47:53;;;;;;;1.50;1.00;;;12.10;98.20;;;;;;4749098;29;20583;-77
2021/05/15 06:50:22;;;;;;;1.50;1.10;;;12.10;98.20;;;;;;4897018;29;20466;-77
2021/05/15 06:52:48;;;;;;;1.50;1.10;;;12.20;98.20;;;;;;4874825;29;20497;-77
2021/05/15 06:55:17;;;;;;;1.50;1.00;;;12.20;98.20;;;;;;5004902;28;20925;-77
2021/05/15 06:57:44;;;;;;;1.50;1.00;;;12.30;98.20;;;;;;5010643;28;20467;-77
2021/05/15 07:00:23;;;;;;;1.50;1.10;;;12.30;98.20;;;;;;5008673;28;20465;-77
2021/05/15 07:02:51;;;;;;;1.50;1.00;;;12.40;98.20;;;;;;5013503;28;20486;-78
2021/05/15 07:05:26;;;;;;;1.50;1.00;;;12.50;98.20;;;;;;5007837;28;20460;-77
2021/05/15 07:07:56;;;;;;;1.50;1.10;;;12.60;98.20;;;;;;5013670;28;20501;-78
2021/05/15 07:10:23;;;;;;;1.50;1.10;;;12.60;98.20;;;;;;5007927;28;20459;-78
2021/05/15 07:12:52;;;;;;;1.50;1.00;;;12.60;98.20;;;;;;5012410;28;20490;-77
2021/05/15 07:15:24;;;;;;;1.50;1.00;;;12.60;98.20;;;;;;5006455;28;20542;-77
2021/05/15 07:17:55;;;;;;;1.50;1.03;;;12.60;98.20;;;;;;5012682;28;20478;-78
2021/05/15 07:20:26;;;;;;;1.50;1.00;;;12.60;98.20;;;;;;5008411;28;20559;-77
2021/05/15 07:22:56;;;;;;;1.50;1.00;;;12.60;98.20;;;;;;5007204;28;20514;-79
2021/05/15 07:25:23;;;;;;;1.50;1.00;;;12.60;98.20;;;;;;5006963;28;20498;-78
2021/05/15 07:27:52;;;;;;;1.50;1.10;;;12.60;98.20;;;;;;5013980;28;20483;-78
2021/05/15 07:30:22;;;;;;;1.50;1.00;;;12.50;98.20;;;;;;5013187;28;20555;-78
2021/05/15 07:33:00;;;;;;;1.50;1.00;;;12.50;98.20;;;;;;5008567;28;20492;-78
2021/05/15 07:35:31;;;;;;;1.50;1.00;;;12.60;98.20;;;;;;5010437;28;20463;-78
2021/05/15 07:37:58;;;;;;;1.50;1.00;;;12.60;98.20;;;;;;5006523;28;20735;-79
2021/05/15 07:40:27;;;;;;;1.50;1.00;;;12.60;98.20;;;;;;5007034;28;20476;-77
2021/05/15 07:42:53;;;;;;;1.50;1.00;;;12.70;98.20;;;;;;5005963;28;20487;-77
2021/05/15 07:45:26;;;;;;;1.50;1.00;;;12.80;98.20;;;;;;5006155;28;20464;-77
2021/05/15 07:47:53;;;;;;;1.90;1.70;;;12.90;98.20;;;;;;5003423;28;20487;-78
2021/05/15 07:50:23;;;;;;;1.50;1.00;;;13.00;98.20;;;;;;5009787;28;20467;-78
2021/05/15 07:52:52;;;;;;;1.50;1.10;;;13.10;98.20;;;;;;5015542;28;20491;-79
2021/05/15 07:55:18;;;;;;;1.50;1.00;;;13.30;98.20;;;;;;5010311;28;20471;-78
2021/05/15 07:57:45;;;;;;;1.53;1.00;;;13.40;98.20;;;;;;5012217;28;21033;-78
2021/05/15 08:00:20;;;;;;;1.50;1.00;;;13.60;98.20;;;;;;5010273;28;20548;-79
2021/05/15 08:02:46;;;;;;;1.53;1.00;;;13.90;98.20;;;;;;5014128;28;20825;-79
2021/05/15 08:05:18;;;;;;;1.50;1.00;;;14.10;98.20;;;;;;5011454;28;20552;-79
2021/05/15 08:07:48;;;;;;;1.50;0.97;;;14.20;98.20;;;;;;5013717;28;20483;-78
2021/05/15 08:10:17;;;;;;;1.50;1.00;;;14.40;98.20;;;;;;5010007;28;20471;-79
2021/05/15 08:12:43;;;;;;;1.50;1.00;;;14.70;98.20;;;;;;5011079;28;20511;-80
2021/05/15 08:15:24;;;;;;;1.50;0.90;;;15.10;98.20;;;;;;5012745;28;20466;-78
2021/05/15 08:18:01;;;;;;;1.50;1.00;;;15.40;97.10;;;;;;5010845;28;21006;-79
2021/05/15 08:20:42;;;;;;;1.50;1.00;;;15.70;95.60;;;;;;5007962;28;20511;-79
2021/05/15 08:23:17;;;;;;;1.50;0.90;;;16.00;93.30;;;;;;4999816;28;20534;-79
2021/05/15 08:25:44;;;;;;;1.50;0.90;;;16.20;92.00;;;;;;5005872;28;20483;-78
2021/05/15 08:28:16;;;;;;;1.50;0.90;;;16.30;91.60;;;;;;5010404;28;20747;-78
2021/05/15 08:30:50;;;;;;;1.50;0.90;;;16.30;90.40;;;;;;5010920;28;20754;-80
2021/05/15 08:33:21;;;;;;;1.50;1.00;;;16.30;89.30;;;;;;4998732;28;20479;-79
2021/05/15 08:35:55;;;;;;;1.50;0.90;;;16.40;89.70;;;;;;4993486;28;20468;-80
2021/05/15 08:38:37;;;;;;;1.50;1.00;;;16.50;89.30;;;;;;5022470;28;20837;-79
2021/05/15 08:41:13;;;;;;;1.50;0.90;;;16.60;88.90;;;;;;4996492;28;20673;-78
2021/05/15 08:43:42;;;;;;;1.50;1.00;;;16.60;88.50;;;;;;5001702;28;20567;-79
2021/05/15 08:46:23;;;;;;;1.50;1.00;;;16.70;88.10;;;;;;4995944;28;20476;-77
2021/05/15 08:48:59;;;;;;;1.50;0.97;;;16.80;88.00;;;;;;5015691;28;20486;-78
2021/05/15 08:51:29;;;;;;;1.50;1.00;;;16.90;87.40;;;;;;5005646;28;20478;-79
2021/05/15 08:54:00;;;;;;;1.50;0.90;;;17.10;88.10;;;;;;5019001;28;20464;-78
2021/05/15 08:56:33;;;;;;;1.50;0.90;;;17.30;85.70;;;;;;4998317;28;20481;-78
2021/05/15 08:59:03;;;;;;;1.50;1.00;;;17.40;84.90;;;;;;5018279;28;20616;-78
2021/05/15 09:01:33;;;;;;;1.50;1.00;;;17.50;85.70;;;;;;5000328;28;20491;-79
2021/05/15 09:04:10;;;;;;;4.23;2.60;;;17.60;85.50;;;;;;5018266;28;20506;-78
2021/05/15 09:06:42;;;;;;;1.50;0.93;;;17.70;84.80;;;;;;4996743;28;20486;-79
2021/05/15 09:09:11;;;;;;;1.50;1.00;;;17.90;84.90;;;;;;5011950;28;20599;-79
2021/05/15 09:11:41;;;;;;;1.50;0.90;;;18.10;83.50;;;;;;5003553;28;20499;-79
2021/05/15 09:14:25;;;;;;;1.50;0.90;;;18.00;82.90;;;;;;5010827;28;20479;-78
2021/05/15 09:16:59;;;;;;;1.50;1.00;;;18.00;81.90;;;;;;5007047;28;20478;-79
2021/05/15 09:19:27;;;;;;;1.50;0.90;;;18.00;82.40;;;;;;5018818;28;20486;-79
2021/05/15 09:21:59;;;;;;;1.50;0.90;;;18.20;82.70;;;;;;5005194;28;20493;-79
2021/05/15 09:24:34;;;;;;;1.50;0.93;;;18.40;81.20;;;;;;5016920;28;20468;-81
2021/05/15 09:27:22;;;;;;;1.50;0.90;;;18.60;80.20;;;;;;4990350;28;20503;-80
2021/05/15 09:30:04;;;;;;;1.50;0.90;;;18.80;79.00;;;;;;5013664;28;20511;-79
2021/05/15 09:32:38;;;;;;;1.57;1.00;;;19.10;78.30;;;;;;5008439;28;20487;-80
2021/05/15 09:35:46;;;;;;;1.50;0.90;;;19.30;77.80;;;;;;5009691;28;20483;-79
2021/05/15 09:38:18;;;;;;;1.50;0.90;;;19.50;77.10;;;;;;4987643;28;20480;-79
2021/05/15 09:41:07;;;;;;;1.50;1.00;;;19.80;77.60;;;;;;5005215;28;20559;-79
2021/05/15 09:43:34;;;;;;;1.50;0.90;;;19.90;75.70;;;;;;4993332;28;21042;-81
2021/05/15 09:46:00;;;;;;;1.50;0.90;;;20.00;75.60;;;;;;4996164;28;20471;-79
2021/05/15 09:48:36;;;;;;;1.50;1.00;;;20.10;75.70;;;;;;5018046;28;20468;-79
2021/05/15 09:51:23;;;;;;;1.50;0.90;;;20.10;75.70;;;;;;4996723;28;20472;-80
2021/05/15 09:53:56;;;;;;;1.50;0.90;;;20.10;75.60;;;;;;5021004;28;20498;-80
2021/05/15 09:56:34;;;;;;;1.50;0.90;;;19.90;75.70;;;;;;4990193;28;20514;-79
2021/05/15 09:59:00;;;;;;;1.50;0.90;;;19.80;75.30;;;;;;5016038;28;20483;-80
2021/05/15 10:01:48;;;;;;;1.50;0.90;;;19.70;76.00;;;;;;5000316;28;20981;-80
2021/05/15 10:04:26;;;;;;;1.50;0.90;;;19.40;76.30;;;;;;5014798;28;21050;-79
2021/05/15 10:06:56;;;;;;;1.50;0.90;;;19.20;77.00;;;;;;5005171;28;20491;-79
2021/05/15 10:09:30;;;;;;;1.50;0.90;;;18.90;77.30;;;;;;5015592;28;21193;-80
2021/05/15 10:12:05;;;;;;;1.50;0.90;;;18.80;79.00;;;;;;5000613;28;20949;-79
2021/05/15 10:14:40;;;;;;;1.50;0.93;;;18.70;81.10;;;;;;5011870;28;21109;-80
2021/05/15 10:17:28;;;;;;;1.50;0.90;;;18.50;80.00;;;;;;5010386;28;20563;-80
2021/05/15 10:20:01;;;;;;;1.50;0.90;;;18.20;80.80;;;;;;5011928;28;20488;-79
2021/05/15 10:22:51;;;;;;;1.50;1.00;;;18.00;81.70;;;;;;5011630;28;20545;-81
2021/05/15 10:25:18;;;;;;;1.50;0.90;;;17.40;85.10;;;;;;5013287;28;20998;-83
2021/05/15 10:27:46;;;;;;;1.50;0.93;;;16.80;88.70;;;;;;5011794;28;20472;-79
2021/05/15 10:30:29;;;;;;;1.50;0.90;;;16.30;87.10;;;;;;5006380;28;20471;-81
2021/05/15 10:33:02;;;;;;;1.50;1.00;;;15.80;89.10;;;;;;5004919;28;20483;-80
2021/05/15 10:35:32;;;;;;;1.50;1.00;;;15.60;91.00;;;;;;5009629;28;20464;-78
2021/05/15 10:38:12;;;;;;;1.50;1.00;;;15.40;91.50;;;;;;5004121;28;20470;-78
2021/05/15 10:40:45;;;;;;;1.50;0.90;;;15.20;92.50;;;;;;5012084;28;20892;-77
2021/05/15 10:43:48;;;;;;;1.50;1.00;;;14.90;94.90;;;;;;5012479;28;20550;-78
2021/05/15 10:46:33;;;;;;;1.50;1.00;;;14.80;96.30;;;;;;5009624;28;20499;-78
2021/05/15 10:49:09;;;;;;;1.50;1.10;;;14.80;96.90;;;;;;5007418;28;20836;-79
2021/05/15 10:51:47;;;;;;;1.50;1.00;;;14.80;98.00;;;;;;5005898;28;20495;-80
2021/05/15 10:54:35;;;;;;;1.50;0.90;;;14.90;98.20;;;;;;5006464;28;20468;-81
2021/05/15 11:03:08;;;;;;;1.50;0.90;;;15.50;98.20;;;;;;4969569;28;20498;-80
2021/05/15 11:05:46;;;;;;;1.50;1.00;;;15.70;98.20;;;;;;4996000;28;20482;-79
2021/05/15 11:08:22;;;;;;;1.50;0.90;;;15.70;97.40;;;;;;5017940;28;21004;-79
2021/05/15 11:10:52;;;;;;;1.50;0.90;;;15.60;94.80;;;;;;5014134;28;20520;-79
2021/05/15 11:13:29;;;;;;;1.50;0.90;;;15.40;96.40;;;;;;5018292;28;20659;-78
2021/05/15 11:16:18;;;;;;;1.50;0.90;;;15.30;96.40;;;;;;5002564;28;20467;-77
2021/05/15 11:18:50;;;;;;;1.50;0.90;;;15.40;97.00;;;;;;5018934;28;20491;-79
2021/05/15 11:21:41;;;;;;;1.50;0.90;;;15.60;97.70;;;;;;4989235;28;20481;-78
2021/05/15 11:27:33;;;;;;;1.50;0.90;;;16.00;95.90;;;;;;4999540;28;20479;-78
2021/05/15 11:30:26;;;;;;;1.50;0.90;;;16.30;97.30;;;;;;5008741;28;20461;-81
2021/05/15 11:33:22;;;;;;;1.50;0.90;;;16.50;94.20;;;;;;5001160;28;20488;-82
2021/05/15 11:35:50;;;;;;;1.50;0.90;;;16.70;93.00;;;;;;4991881;28;21107;-83
2021/05/15 11:38:26;;;;;;;1.50;0.90;;;17.00;91.60;;;;;;5020603;28;20472;-82
2021/05/15 11:41:01;;;;;;;1.50;0.90;;;17.30;92.60;;;;;;4994401;28;21036;-83
2021/05/15 11:43:40;;;;;;;1.50;0.93;;;17.40;88.60;;;;;;5019625;28;20823;-82
2021/05/15 11:46:12;;;;;;;1.50;1.00;;;17.30;90.20;;;;;;4990295;28;20798;-81
2021/05/15 11:49:02;;;;;;;1.50;0.90;;;17.40;91.20;;;;;;5012769;28;20471;-82
2021/05/15 11:52:02;;;;;;;1.50;0.90;;;17.60;89.90;;;;;;5001968;28;20857;-80
2021/05/15 11:54:41;;;;;;;1.50;0.90;;;17.70;86.80;;;;;;4934838;28;21065;-80
2021/05/15 11:57:35;;;;;;;1.50;1.00;;;17.70;88.70;;;;;;4978352;28;20510;-81
2021/05/15 12:00:15;;;;;;;1.50;0.90;;;17.70;87.60;;;;;;5001570;28;20879;-80
2021/05/15 12:05:57;;;;;;;1.50;0.90;;;17.80;86.90;;;;;;4969428;28;21055;-81
2021/05/15 12:08:26;;;;;;;1.50;0.90;;;17.90;86.00;;;;;;5016019;28;20511;-80
2021/05/15 12:13:53;;;;;;;1.50;0.90;;;18.20;85.00;;;;;;5012812;28;20464;-78
2021/05/15 12:16:36;;;;;;;1.50;0.90;;;18.30;84.60;;;;;;4997703;28;20602;-82
2021/05/15 12:19:28;;;;;;;1.50;0.90;;;18.40;83.30;;;;;;5012897;28;20530;-82
2021/05/15 12:22:08;;;;;;;1.47;0.90;;;18.40;83.70;;;;;;5001008;28;20487;-83
2021/05/15 12:24:45;;;;;;;1.50;0.90;;;18.50;82.60;;;;;;5014895;28;20464;-81
2021/05/15 12:27:13;;;;;;;1.50;0.90;;;18.60;82.30;;;;;;5001203;28;20479;-79
2021/05/15 12:29:45;;;;;;;1.50;0.90;;;18.60;80.80;;;;;;5013092;28;20456;-79
2021/05/15 12:32:28;;;;;;;1.47;0.90;;;18.30;81.70;;;;;;5010952;28;20666;-80
2021/05/15 12:35:04;;;;;;;1.60;1.10;;;18.30;82.80;;;;;;5015125;28;20990;-81
2021/05/15 12:37:38;;;;;;;1.50;0.90;;;18.50;82.00;;;;;;5014054;28;20856;-81
2021/05/15 12:40:14;;;;;;;1.50;1.00;;;18.80;82.00;;;;;;5012492;28;20491;-81
2021/05/15 12:42:51;;;;;;;1.50;0.90;;;18.80;80.10;;;;;;5005014;28;20494;-81
2021/05/15 12:45:25;;;;;;;1.50;0.90;;;19.00;80.50;;;;;;5016758;28;20456;-83
2021/05/15 12:48:10;;;;;;;1.50;0.90;;;19.20;79.60;;;;;;5020759;28;20553;-82
2021/05/15 12:51:21;;;;;;;1.50;0.90;;;19.40;78.80;;;;;;5009745;28;20848;-81
2021/05/15 12:57:30;;;;;;;1.50;0.90;;;19.40;78.60;;;;;;5003040;28;21134;-78
2021/05/15 12:59:58;;;;;;;1.50;0.90;;;19.30;78.10;;;;;;5014824;28;20484;-79
2021/05/15 13:02:33;;;;;;;1.60;1.10;;;19.20;79.90;;;;;;5014270;28;20494;-80
2021/05/15 13:05:10;;;;;;;1.50;0.90;;;19.10;78.50;;;;;;5006526;28;20467;-78
2021/05/15 13:07:47;;;;;;;1.50;1.00;;;18.90;77.30;;;;;;5010512;28;20481;-81
2021/05/15 13:10:36;;;;;;;1.50;0.90;;;18.70;79.30;;;;;;5009963;28;20466;-79
2021/05/15 13:13:26;;;;;;;;;;;;;;;;;;;;;
2021/05/15 13:16:06;;;;;;;1.50;0.90;;;18.20;80.60;;;;;;4994530;28;20472;-81
2021/05/15 13:18:38;;;;;;;1.50;0.90;;;18.00;80.80;;;;;;5021410;28;20463;-81
2021/05/15 13:21:10;;;;;;;1.50;0.90;;;17.70;81.90;;;;;;5003989;28;20489;-81
2021/05/15 13:23:42;;;;;;;1.50;1.00;;;17.50;83.40;;;;;;5017963;28;20461;-80
2021/05/15 13:26:21;;;;;;;1.50;1.00;;;17.30;83.10;;;;;;5003368;28;20482;-80
2021/05/15 13:28:53;;;;;;;1.50;0.90;;;17.00;85.90;;;;;;5019008;28;20465;-84
2021/05/15 13:31:25;;;;;;;1.50;0.93;;;16.70;89.00;;;;;;5002559;28;20693;-83
2021/05/15 13:37:09;;;;;;;;;;;;;;;;;;;;;
2021/05/15 13:42:47;;;;;;;1.50;0.90;;;15.80;95.00;;;;;;4995233;28;20766;-80
2021/05/15 13:45:21;;;;;;;1.50;1.00;;;15.30;95.20;;;;;;5010340;28;20848;-79
2021/05/15 13:48:02;;;;;;;1.50;1.00;;;15.20;96.10;;;;;;4999901;28;20494;-77
2021/05/15 13:50:43;;;;;;;1.50;0.90;;;15.20;95.70;;;;;;5010318;28;20566;-79
2021/05/15 13:53:12;;;;;;;1.50;1.00;;;15.30;94.60;;;;;;5009615;28;20516;-81
2021/05/15 13:55:41;;;;;;;1.50;0.90;;;15.20;95.20;;;;;;5013697;28;21132;-77
2021/05/15 13:58:33;;;;;;;1.50;0.90;;;15.30;97.10;;;;;;5010558;28;20587;-78
2021/05/15 14:01:08;;;;;;;1.50;0.90;;;15.40;96.00;;;;;;5003148;28;20464;-78
2021/05/15 14:03:54;;;;;;;1.50;1.00;;;15.60;96.30;;;;;;5019368;28;20460;-78
2021/05/15 14:06:31;;;;;;;1.47;0.90;;;15.70;95.50;;;;;;5001770;28;20529;-78
2021/05/15 14:09:13;;;;;;;;;;;;;;;;;;;;;
2021/05/15 14:11:45;;;;;;;1.50;0.90;;;16.20;94.70;;;;;;4997913;28;20487;-78
2021/05/15 14:14:32;;;;;;;1.50;0.90;;;16.40;93.80;;;;;;5016119;28;21002;-77
2021/05/15 14:17:20;;;;;;;1.50;0.90;;;16.60;92.20;;;;;;5006866;28;20574;-79
2021/05/15 14:20:00;;;;;;;1.50;0.90;;;16.70;91.90;;;;;;5009278;28;20594;-79
2021/05/15 14:22:29;;;;;;;1.50;1.00;;;16.50;92.00;;;;;;5008499;28;20479;-79
2021/05/15 14:25:08;;;;;;;1.50;1.00;;;16.50;93.30;;;;;;5009652;28;20495;-79
2021/05/15 14:27:52;;;;;;;1.50;0.90;;;16.20;92.40;;;;;;5013023;28;20506;-80
2021/05/15 14:30:59;;;;;;;1.50;1.00;;;15.80;94.60;;;;;;5002669;28;20456;-79
2021/05/15 14:33:28;;;;;;;1.50;1.00;;;15.60;97.20;;;;;;4996517;28;20484;-77